Time;durP1;ratioP1;P1;durP2;ratioP2;P2;SDS_P1;SDS_P2;PMS_P1;PMS_P2;Temp;Humidity;BMP_temperature;BMP_pressure;BME280_temperature;BME280_humidity;BME280_pressure;Samples;Min_cycle;Max_cycle;Signal;HPM_P1;HPM_P2
2022/07/12 00:01:43;;;;;;;0.00;0.00;;;12.60;99.90;;;;;;6194638;23;20019;-80
2022/07/12 00:04:09;;;;;;;0.10;0.10;;;12.60;99.90;;;;;;6197503;23;20016;-80
2022/07/12 00:06:34;;;;;;;0.00;0.00;;;12.60;99.90;;;;;;6194839;23;20012;-81
2022/07/12 00:09:00;;;;;;;0.10;0.10;;;12.60;99.90;;;;;;6194820;23;20012;-81
2022/07/12 00:11:25;;;;;;;0.10;0.10;;;12.50;99.90;;;;;;6196078;23;20091;-80
2022/07/12 00:13:51;;;;;;;0.28;0.17;;;12.60;99.90;;;;;;6219547;22;20011;-81
2022/07/12 00:16:17;;;;;;;0.10;0.10;;;12.60;99.90;;;;;;6219797;23;20012;-81
2022/07/12 00:18:42;;;;;;;0.00;0.00;;;12.40;99.90;;;;;;6194842;23;20031;-81
2022/07/12 00:21:08;;;;;;;0.17;0.10;;;12.50;99.90;;;;;;6220206;23;20091;-81
2022/07/12 00:23:34;;;;;;;0.00;0.00;;;12.30;99.90;;;;;;6220667;23;20047;-81
2022/07/12 00:26:04;;;;;;;0.00;0.00;;;12.40;99.90;;;;;;6220723;23;20458;-81
2022/07/12 00:28:30;;;;;;;0.10;0.10;;;12.30;99.90;;;;;;6218731;23;20012;-81
2022/07/12 00:30:56;;;;;;;0.00;0.00;;;12.30;99.90;;;;;;6196923;23;20039;-81
2022/07/12 00:33:21;;;;;;;0.10;0.10;;;12.20;99.90;;;;;;6196173;23;20016;-79
2022/07/12 00:35:47;;;;;;;0.00;0.00;;;12.20;99.90;;;;;;6194895;23;20011;-79
2022/07/12 00:38:12;;;;;;;0.00;0.00;;;12.20;99.90;;;;;;6193991;23;20365;-79
2022/07/12 00:40:38;;;;;;;0.00;0.00;;;12.20;99.90;;;;;;6195699;23;20015;-79
2022/07/12 00:43:03;;;;;;;0.00;0.00;;;12.20;99.90;;;;;;6193355;23;20384;-80
2022/07/12 00:45:29;;;;;;;0.15;0.15;;;12.20;99.90;;;;;;6194112;23;20020;-80
2022/07/12 00:47:55;;;;;;;0.10;0.10;;;12.10;99.90;;;;;;6217510;23;20091;-80
2022/07/12 00:50:22;;;;;;;0.00;0.00;;;12.10;99.90;;;;;;6218203;23;20065;-80
2022/07/12 00:52:51;;;;;;;0.10;0.10;;;12.00;99.90;;;;;;6193267;23;20522;-79
2022/07/12 00:55:18;;;;;;;0.00;0.00;;;12.00;99.90;;;;;;6194028;23;20004;-80
2022/07/12 00:57:44;;;;;;;0.10;0.10;;;12.00;99.90;;;;;;6192773;23;20016;-80
2022/07/12 01:00:14;;;;;;;0.00;0.00;;;12.00;99.90;;;;;;6219044;23;20343;-80
2022/07/12 01:02:40;;;;;;;0.35;0.15;;;11.90;99.90;;;;;;6217584;23;20008;-79
2022/07/12 01:05:07;;;;;;;0.05;0.05;;;11.90;99.90;;;;;;6193102;23;20464;-79
2022/07/12 01:07:37;;;;;;;0.00;0.00;;;11.90;99.90;;;;;;6193448;23;20015;-80
2022/07/12 01:10:04;;;;;;;0.00;0.00;;;11.90;99.90;;;;;;6217467;23;20031;-80
2022/07/12 01:12:30;;;;;;;0.00;0.00;;;11.80;99.90;;;;;;6218351;23;20016;-80
2022/07/12 01:14:57;;;;;;;0.00;0.00;;;11.70;99.90;;;;;;6193733;23;20031;-80
2022/07/12 01:17:24;;;;;;;0.08;0.08;;;11.70;99.90;;;;;;6218294;23;20022;-80
2022/07/12 01:19:52;;;;;;;0.10;0.10;;;11.70;99.90;;;;;;6218391;23;20004;-80
2022/07/12 01:22:18;;;;;;;0.00;0.00;;;11.70;99.90;;;;;;6193337;23;20020;-80
2022/07/12 01:24:45;;;;;;;0.00;0.00;;;11.70;99.90;;;;;;6218209;23;20012;-81
2022/07/12 01:27:11;;;;;;;0.10;0.10;;;11.70;99.90;;;;;;6218330;23;20012;-81
2022/07/12 01:29:37;;;;;;;0.00;0.00;;;11.70;99.90;;;;;;6217938;23;20012;-81
2022/07/12 01:34:50;;;;;;;0.10;0.10;;;11.50;99.90;;;;;;6218590;23;20050;-81
2022/07/12 01:37:16;;;;;;;0.00;0.00;;;11.50;99.90;;;;;;6193539;23;20004;-82
2022/07/12 01:39:43;;;;;;;0.10;0.10;;;11.50;99.90;;;;;;6218433;23;20009;-82
2022/07/12 01:42:09;;;;;;;0.05;0.05;;;11.50;99.90;;;;;;6193460;23;20074;-82
2022/07/12 01:44:36;;;;;;;0.00;0.00;;;11.40;99.90;;;;;;6193604;23;20008;-81
2022/07/12 01:47:01;;;;;;;0.10;0.10;;;11.40;99.90;;;;;;6218634;23;20012;-81
2022/07/12 01:49:27;;;;;;;0.05;0.05;;;11.30;99.90;;;;;;6217618;23;20062;-81
2022/07/12 01:51:55;;;;;;;0.10;0.10;;;11.30;99.90;;;;;;6192882;23;20047;-81
2022/07/12 01:54:21;;;;;;;0.00;0.00;;;11.30;99.90;;;;;;6192713;23;20241;-80
2022/07/12 01:56:47;;;;;;;0.10;0.10;;;11.20;99.90;;;;;;6218386;23;20015;-81
2022/07/12 01:59:13;;;;;;;0.05;0.05;;;11.20;99.90;;;;;;6192329;23;20087;-81
2022/07/12 02:01:38;;;;;;;0.10;0.10;;;11.20;99.90;;;;;;6217541;23;20008;-81
2022/07/12 02:04:05;;;;;;;0.20;0.20;;;11.20;99.90;;;;;;6218240;23;20008;-81
2022/07/12 02:06:31;;;;;;;0.10;0.10;;;11.20;99.90;;;;;;6218149;23;20008;-81
2022/07/12 02:08:56;;;;;;;0.08;0.08;;;11.20;99.90;;;;;;6217052;23;20005;-80
2022/07/12 02:11:22;;;;;;;0.10;0.10;;;11.10;99.90;;;;;;6218079;23;20081;-80
2022/07/12 02:13:48;;;;;;;0.20;0.10;;;11.10;99.90;;;;;;6192445;22;20027;-80
2022/07/12 02:16:13;;;;;;;0.10;0.10;;;11.10;99.90;;;;;;6217596;23;20008;-81
2022/07/12 02:18:39;;;;;;;0.10;0.10;;;11.10;99.90;;;;;;6192022;23;20100;-81
2022/07/12 02:21:05;;;;;;;0.05;0.05;;;11.00;99.90;;;;;;6193058;23;20012;-81
2022/07/12 02:23:30;;;;;;;0.05;0.05;;;11.10;99.90;;;;;;6217485;23;20008;-81
2022/07/12 02:25:56;;;;;;;0.10;0.10;;;11.00;99.90;;;;;;6192524;23;20008;-82
2022/07/12 02:28:22;;;;;;;0.00;0.00;;;11.00;99.90;;;;;;6191839;23;20043;-81
2022/07/12 02:30:47;;;;;;;0.10;0.10;;;11.00;99.90;;;;;;6192397;23;20061;-81
2022/07/12 02:33:15;;;;;;;0.00;0.00;;;10.90;99.90;;;;;;6192434;23;20016;-81
2022/07/12 02:35:42;;;;;;;0.00;0.00;;;10.90;99.90;;;;;;6192596;23;20043;-81
2022/07/12 02:38:09;;;;;;;0.10;0.10;;;10.90;99.90;;;;;;6217609;23;20031;-80
2022/07/12 02:40:52;;;;;;;0.10;0.10;;;11.00;99.90;;;;;;6217923;23;20016;-81
2022/07/12 02:43:21;;;;;;;0.10;0.10;;;10.90;99.90;;;;;;6192320;23;20043;-82
2022/07/12 02:45:47;;;;;;;0.00;0.00;;;10.90;99.90;;;;;;6192653;23;20008;-82
2022/07/12 02:48:13;;;;;;;0.10;0.10;;;10.90;99.90;;;;;;6192235;23;20016;-82
2022/07/12 02:50:40;;;;;;;0.10;0.10;;;10.90;99.90;;;;;;6192618;23;20019;-82
2022/07/12 02:53:07;;;;;;;0.10;0.10;;;10.90;99.90;;;;;;6191860;23;20012;-82
2022/07/12 02:55:33;;;;;;;0.00;0.00;;;10.90;99.90;;;;;;6192152;23;20008;-82
2022/07/12 02:57:58;;;;;;;0.10;0.10;;;10.80;99.90;;;;;;6217073;23;20087;-81
2022/07/12 03:00:24;;;;;;;0.10;0.10;;;10.80;99.90;;;;;;6192658;23;20012;-81
2022/07/12 03:02:50;;;;;;;0.00;0.00;;;10.80;99.90;;;;;;6192257;23;20054;-80
2022/07/12 03:05:15;;;;;;;0.10;0.10;;;10.80;99.90;;;;;;6192219;23;20023;-81
2022/07/12 03:07:41;;;;;;;0.10;0.10;;;10.80;99.90;;;;;;6217070;23;20012;-80
2022/07/12 03:10:07;;;;;;;0.10;0.10;;;10.80;99.90;;;;;;6192575;23;20058;-81
2022/07/12 03:12:34;;;;;;;0.10;0.10;;;10.80;99.90;;;;;;6192511;23;20012;-81
2022/07/12 03:15:00;;;;;;;0.10;0.10;;;10.80;99.90;;;;;;6191229;23;20012;-81
2022/07/12 03:17:25;;;;;;;0.00;0.00;;;10.80;99.90;;;;;;6217551;23;20091;-80
2022/07/12 03:19:51;;;;;;;0.10;0.10;;;10.80;99.90;;;;;;6191235;23;20043;-82
2022/07/12 03:22:17;;;;;;;0.52;0.10;;;10.80;99.90;;;;;;6192631;23;20372;-81
2022/07/12 03:24:42;;;;;;;0.10;0.10;;;10.80;99.90;;;;;;6191516;23;20348;-80
2022/07/12 03:27:09;;;;;;;0.13;0.10;;;10.80;99.90;;;;;;6193012;23;20596;-81
2022/07/12 03:29:35;;;;;;;0.10;0.10;;;10.80;99.90;;;;;;6191638;23;20068;-81
2022/07/12 03:32:01;;;;;;;0.20;0.10;;;10.80;99.90;;;;;;6191078;23;20039;-81
2022/07/12 04:44:22;;;;;;;0.10;0.10;;;11.90;99.90;;;;;;6226563;22;20162;-82
2022/07/12 04:46:47;;;;;;;0.10;0.10;;;12.00;99.90;;;;;;6223965;22;20419;-82
2022/07/12 04:49:13;;;;;;;0.10;0.10;;;12.10;99.90;;;;;;6222816;22;20012;-82
2022/07/12 04:51:39;;;;;;;0.35;0.10;;;12.20;99.90;;;;;;6248938;22;20015;-82
2022/07/12 04:54:04;;;;;;;0.10;0.10;;;12.40;99.90;;;;;;6223596;22;20065;-82
2022/07/12 04:56:30;;;;;;;0.00;0.00;;;12.50;99.90;;;;;;6219333;23;20013;-82
2022/07/12 05:09:17;;;;;;;0.10;0.10;;;14.10;99.90;;;;;;6260123;22;20359;-85
2022/07/12 05:11:45;;;;;;;0.10;0.10;;;14.30;99.90;;;;;;6253875;22;20003;-85
2022/07/12 05:14:11;;;;;;;0.08;0.08;;;14.50;99.90;;;;;;6252513;22;20027;-85
2022/07/12 05:16:36;;;;;;;0.10;0.10;;;14.70;99.90;;;;;;6253749;22;20324;-85
2022/07/12 05:19:02;;;;;;;0.10;0.10;;;15.00;99.90;;;;;;6279142;22;20013;-86
2022/07/12 05:21:28;;;;;;;0.03;0.03;;;15.20;99.90;;;;;;6253901;22;20351;-86
2022/07/12 05:23:53;;;;;;;0.10;0.10;;;15.30;99.90;;;;;;6278989;22;20011;-86
2022/07/12 05:26:19;;;;;;;0.00;0.00;;;15.40;99.90;;;;;;6253842;22;20007;-86
2022/07/12 05:28:44;;;;;;;0.10;0.10;;;15.60;99.90;;;;;;6253091;22;20069;-85
2022/07/12 05:31:11;;;;;;;0.00;0.00;;;15.80;99.90;;;;;;6253941;22;20465;-86
2022/07/12 05:33:36;;;;;;;0.05;0.05;;;16.10;99.90;;;;;;6253719;22;20061;-86
2022/07/12 05:36:02;;;;;;;0.00;0.00;;;16.40;99.90;;;;;;6279878;22;20003;-86
2022/07/12 05:38:27;;;;;;;0.10;0.10;;;16.60;99.90;;;;;;6252465;22;20488;-85
2022/07/12 05:40:53;;;;;;;0.10;0.10;;;16.70;99.90;;;;;;6253109;22;20324;-84
2022/07/12 05:43:19;;;;;;;0.10;0.10;;;16.80;99.90;;;;;;6252799;22;20007;-86
2022/07/12 05:45:44;;;;;;;0.00;0.00;;;16.70;99.90;;;;;;6278465;22;20019;-86
2022/07/12 05:48:10;;;;;;;0.05;0.05;;;16.60;99.90;;;;;;6278168;22;20038;-86
2022/07/12 05:50:35;;;;;;;0.03;0.03;;;16.60;99.90;;;;;;6254109;22;20007;-85
2022/07/12 05:55:45;;;;;;;0.20;0.20;;;16.50;99.90;;;;;;6279270;22;20130;-85
2022/07/12 05:58:11;;;;;;;0.10;0.10;;;16.50;99.90;;;;;;6253202;22;20007;-85
2022/07/12 06:00:36;;;;;;;0.05;0.05;;;16.40;99.90;;;;;;6253024;22;20347;-86
2022/07/12 06:03:02;;;;;;;0.00;0.00;;;16.50;99.90;;;;;;6253251;22;20369;-85
2022/07/12 06:05:28;;;;;;;0.10;0.10;;;16.50;99.90;;;;;;6253494;22;20068;-84
2022/07/12 06:07:53;;;;;;;0.10;0.10;;;16.50;99.90;;;;;;6252546;22;20376;-85
2022/07/12 06:10:19;;;;;;;0.10;0.10;;;16.50;99.90;;;;;;6253235;22;20015;-84
2022/07/12 06:12:44;;;;;;;0.10;0.10;;;16.40;99.90;;;;;;6253262;22;20101;-84
2022/07/12 06:15:10;;;;;;;0.38;0.10;;;16.50;99.90;;;;;;6253015;22;20026;-85
2022/07/12 06:17:36;;;;;;;0.10;0.10;;;16.50;99.90;;;;;;6279298;22;20018;-84
2022/07/12 06:20:03;;;;;;;0.00;0.00;;;16.50;99.90;;;;;;6253094;22;20011;-84
2022/07/12 06:22:29;;;;;;;0.05;0.05;;;16.60;99.90;;;;;;6253366;22;20443;-84
2022/07/12 06:24:54;;;;;;;0.10;0.10;;;16.60;99.90;;;;;;6253096;22;20022;-84
2022/07/12 06:27:20;;;;;;;0.10;0.10;;;16.80;99.90;;;;;;6253389;22;20016;-84
2022/07/12 06:29:47;;;;;;;0.00;0.00;;;16.80;99.90;;;;;;6278349;22;20451;-85
2022/07/12 06:32:22;;;;;;;0.03;0.03;;;16.90;99.90;;;;;;6253589;22;20015;-84
2022/07/12 06:34:48;;;;;;;0.10;0.10;;;17.10;99.90;;;;;;6252280;22;20447;-85
2022/07/12 06:37:14;;;;;;;0.10;0.10;;;17.20;99.90;;;;;;6252203;22;20018;-84
2022/07/12 06:39:40;;;;;;;0.00;0.00;;;17.20;99.90;;;;;;6277611;22;20007;-84
2022/07/12 06:42:06;;;;;;;0.00;0.00;;;17.30;99.90;;;;;;6252760;22;20011;-84
2022/07/12 06:44:33;;;;;;;0.10;0.10;;;17.40;99.90;;;;;;6279020;22;20034;-84
2022/07/12 06:46:59;;;;;;;0.10;0.10;;;17.50;99.90;;;;;;6253031;22;20011;-84
2022/07/12 06:49:25;;;;;;;0.10;0.10;;;17.50;99.90;;;;;;6253104;22;20018;-83
2022/07/12 06:51:51;;;;;;;0.08;0.08;;;17.60;99.90;;;;;;6252300;22;20015;-82
2022/07/12 06:54:17;;;;;;;0.00;0.00;;;17.70;99.90;;;;;;6278201;22;20014;-84
2022/07/12 06:56:42;;;;;;;0.13;0.13;;;17.70;99.90;;;;;;6277739;22;20010;-84
2022/07/12 06:59:10;;;;;;;0.10;0.10;;;17.80;99.90;;;;;;6253419;22;20046;-84
2022/07/12 07:01:40;;;;;;;0.00;0.00;;;17.90;99.90;;;;;;6252948;22;20007;-83
2022/07/12 07:04:05;;;;;;;0.00;0.00;;;18.00;99.90;;;;;;6278642;22;20047;-85
2022/07/12 07:06:31;;;;;;;0.17;0.17;;;17.90;99.90;;;;;;6251290;22;20018;-84
2022/07/12 07:08:57;;;;;;;0.10;0.10;;;18.10;99.90;;;;;;6252393;22;20380;-85
2022/07/12 07:11:22;;;;;;;0.00;0.00;;;18.20;99.90;;;;;;6278353;22;20003;-84
2022/07/12 07:13:48;;;;;;;0.10;0.10;;;18.20;99.90;;;;;;6252567;22;20011;-84
2022/07/12 07:16:14;;;;;;;0.10;0.10;;;18.40;99.90;;;;;;6253138;22;20007;-84
2022/07/12 07:18:40;;;;;;;0.30;0.20;;;18.50;99.90;;;;;;6252684;22;20100;-85
2022/07/12 07:21:06;;;;;;;0.35;0.10;;;18.60;99.90;;;;;;6276836;22;20026;-84
2022/07/12 07:23:32;;;;;;;0.08;0.08;;;18.60;99.90;;;;;;6252456;22;20336;-85
2022/07/12 07:25:58;;;;;;;0.15;0.15;;;18.80;99.90;;;;;;6251680;22;20113;-84
2022/07/12 07:28:24;;;;;;;0.00;0.00;;;18.90;99.90;;;;;;6251122;22;20015;-85
2022/07/12 07:30:52;;;;;;;0.10;0.10;;;19.00;99.90;;;;;;6252534;22;20050;-84
2022/07/12 07:33:22;;;;;;;0.05;0.05;;;19.10;99.90;;;;;;6252180;22;20027;-85
2022/07/12 07:35:50;;;;;;;0.10;0.10;;;19.20;99.90;;;;;;6252366;22;20018;-84
2022/07/12 07:38:19;;;;;;;0.00;0.00;;;19.30;99.90;;;;;;6278035;22;20007;-84
2022/07/12 07:40:45;;;;;;;0.10;0.10;;;19.40;99.90;;;;;;6253203;22;20040;-84
2022/07/12 07:43:10;;;;;;;0.10;0.10;;;19.50;99.90;;;;;;6252616;22;20011;-84
2022/07/12 07:45:36;;;;;;;0.10;0.10;;;19.60;99.90;;;;;;6278551;22;20015;-84
2022/07/12 07:48:03;;;;;;;0.00;0.00;;;19.80;99.90;;;;;;6278420;22;20011;-84
2022/07/12 07:50:32;;;;;;;0.10;0.10;;;20.00;99.90;;;;;;6278481;22;20052;-84
2022/07/12 07:52:57;;;;;;;0.00;0.00;;;20.40;99.90;;;;;;6277556;22;20015;-84
2022/07/12 07:55:23;;;;;;;0.00;0.00;;;20.80;99.90;;;;;;6252432;22;20445;-84
2022/07/12 07:57:49;;;;;;;0.10;0.10;;;21.40;99.90;;;;;;6252761;22;20003;-84
2022/07/12 08:00:15;;;;;;;0.10;0.10;;;21.90;99.90;;;;;;6252820;22;20007;-84
2022/07/12 08:02:41;;;;;;;0.10;0.10;;;22.30;99.90;;;;;;6253012;22;20451;-85
2022/07/12 08:05:10;;;;;;;0.00;0.00;;;22.70;99.90;;;;;;6252552;22;20061;-84
2022/07/12 08:07:36;;;;;;;0.15;0.10;;;23.10;99.90;;;;;;6278696;22;20069;-84
2022/07/12 08:10:01;;;;;;;0.20;0.10;;;23.40;99.90;;;;;;6252717;22;20451;-84
2022/07/12 08:12:27;;;;;;;0.10;0.10;;;23.80;99.90;;;;;;6252989;22;20027;-84
2022/07/12 08:14:52;;;;;;;0.25;0.10;;;24.20;99.90;;;;;;6252596;22;20043;-85
2022/07/12 08:17:18;;;;;;;0.05;0.05;;;24.70;99.90;;;;;;6278462;22;20122;-85
2022/07/12 08:19:43;;;;;;;0.00;0.00;;;25.10;99.90;;;;;;6279930;22;20017;-85
2022/07/12 08:22:09;;;;;;;0.10;0.10;;;25.40;99.90;;;;;;6254912;22;20029;-84
2022/07/12 08:24:35;;;;;;;0.15;0.10;;;25.50;99.90;;;;;;6254790;22;20337;-84
2022/07/12 08:27:00;;;;;;;0.00;0.00;;;25.60;99.90;;;;;;6254338;22;20046;-85
2022/07/12 08:29:26;;;;;;;0.08;0.08;;;25.60;99.90;;;;;;6254568;22;20015;-84
2022/07/12 08:31:52;;;;;;;0.10;0.10;;;25.50;99.90;;;;;;6279903;22;20007;-84
2022/07/12 08:34:17;;;;;;;0.00;0.00;;;25.30;99.90;;;;;;6280331;22;20120;-85
2022/07/12 08:36:43;;;;;;;0.00;0.00;;;25.20;99.90;;;;;;6254973;22;20473;-84
2022/07/12 08:39:09;;;;;;;0.00;0.00;;;25.10;99.90;;;;;;6253876;22;20045;-84
2022/07/12 08:41:35;;;;;;;0.00;0.00;;;25.00;99.90;;;;;;6254592;22;20011;-84
2022/07/12 08:44:01;;;;;;;0.10;0.05;;;25.10;99.90;;;;;;6254668;22;20019;-84
2022/07/12 08:46:27;;;;;;;0.05;0.05;;;25.10;99.90;;;;;;6253718;22;20015;-85
2022/07/12 08:48:53;;;;;;;0.60;0.10;;;25.20;99.90;;;;;;6253201;22;20038;-85
2022/07/12 08:51:20;;;;;;;0.00;0.00;;;25.40;99.90;;;;;;6253770;22;20011;-85
2022/07/12 08:53:46;;;;;;;0.00;0.00;;;25.60;99.90;;;;;;6253825;22;20271;-84
2022/07/12 08:56:35;;;;;;;0.00;0.00;;;25.80;99.90;;;;;;6253462;22;20535;-85
2022/07/12 08:59:20;;;;;;;0.10;0.00;;;26.30;99.90;;;;;;6254270;22;20043;-84
2022/07/12 09:01:50;;;;;;;0.00;0.00;;;26.80;99.90;;;;;;6253626;22;20093;-84
2022/07/12 09:04:24;;;;;;;0.00;0.00;;;27.40;99.90;;;;;;6253743;22;20029;-84
2022/07/12 09:06:50;;;;;;;0.00;0.00;;;27.80;99.90;;;;;;6279678;22;20086;-84
2022/07/12 09:09:27;;;;;;;0.03;0.03;;;28.20;99.90;;;;;;6253496;22;20065;-85
2022/07/12 09:11:53;;;;;;;0.00;0.00;;;28.40;99.90;;;;;;6252259;22;20370;-85
2022/07/12 09:14:22;;;;;;;0.10;0.10;;;28.40;99.90;;;;;;6254423;22;20062;-85
2022/07/12 09:17:09;;;;;;;0.00;0.00;;;28.50;99.90;;;;;;6253172;22;20011;-85
2022/07/12 09:19:38;;;;;;;0.00;0.00;;;28.60;99.80;;;;;;6279346;22;20056;-84
2022/07/12 09:22:13;;;;;;;0.10;0.00;;;28.70;99.90;;;;;;6253896;22;20010;-85
2022/07/12 09:24:38;;;;;;;0.00;0.00;;;28.80;99.90;;;;;;6253947;22;20106;-84
2022/07/12 09:27:05;;;;;;;0.00;0.00;;;28.90;99.90;;;;;;6253936;22;20462;-85
2022/07/12 09:29:32;;;;;;;0.00;0.00;;;28.80;99.90;;;;;;6279020;22;20378;-85
2022/07/12 09:37:41;;;;;;;0.10;0.10;;;28.10;98.20;;;;;;6278324;22;20019;-84
2022/07/12 09:40:08;;;;;;;0.00;0.00;;;28.10;99.40;;;;;;6253090;22;20015;-85
2022/07/12 09:42:34;;;;;;;0.00;0.00;;;28.00;96.20;;;;;;6254009;22;20343;-85
2022/07/12 09:45:01;;;;;;;0.00;0.00;;;28.00;98.40;;;;;;6253148;22;20065;-84
2022/07/12 09:47:27;;;;;;;0.00;0.00;;;27.90;98.30;;;;;;6252269;22;20307;-84
2022/07/12 09:49:54;;;;;;;0.00;0.00;;;27.90;99.90;;;;;;6278660;22;20046;-84
2022/07/12 09:52:27;;;;;;;0.03;0.00;;;28.10;99.90;;;;;;6253359;22;20144;-84
2022/07/12 09:54:54;;;;;;;0.08;0.00;;;28.50;98.80;;;;;;6253157;22;20382;-85
2022/07/12 09:57:30;;;;;;;0.00;0.00;;;28.80;88.10;;;;;;6253415;22;20444;-84
2022/07/12 09:59:57;;;;;;;0.00;0.00;;;29.20;98.60;;;;;;6253287;22;20014;-85
2022/07/12 10:02:23;;;;;;;0.00;0.00;;;29.50;93.50;;;;;;6252090;22;20034;-85
2022/07/12 10:04:50;;;;;;;0.40;0.13;;;29.60;87.90;;;;;;6251229;22;20460;-86
2022/07/12 10:07:16;;;;;;;0.00;0.00;;;29.60;90.00;;;;;;6253192;22;20019;-85
2022/07/12 10:09:55;;;;;;;0.00;0.00;;;29.60;90.30;;;;;;6253428;22;20018;-85
2022/07/12 10:12:22;;;;;;;0.00;0.00;;;29.40;86.40;;;;;;6252635;22;20022;-85
2022/07/12 10:15:02;;;;;;;0.00;0.00;;;29.20;89.60;;;;;;6253300;22;20086;-86
2022/07/12 10:17:29;;;;;;;0.10;0.00;;;29.10;88.60;;;;;;6253231;22;20039;-85
2022/07/12 10:20:14;;;;;;;0.08;0.00;;;29.20;91.50;;;;;;6253664;22;20043;-85
2022/07/12 10:23:12;;;;;;;0.00;0.00;;;29.50;86.90;;;;;;6252766;22;20019;-85
2022/07/12 10:25:37;;;;;;;0.00;0.00;;;29.90;89.50;;;;;;6252704;22;20019;-85
2022/07/12 10:28:03;;;;;;;0.00;0.00;;;30.40;84.30;;;;;;6252580;22;20080;-85
2022/07/12 10:30:30;;;;;;;0.00;0.00;;;30.50;79.00;;;;;;6279009;22;20007;-85
2022/07/12 10:32:59;;;;;;;0.00;0.00;;;30.40;83.60;;;;;;6253008;22;20094;-85
2022/07/12 10:35:27;;;;;;;0.10;0.10;;;30.40;78.80;;;;;;6278380;22;20339;-87
2022/07/12 10:38:16;;;;;;;0.00;0.00;;;30.30;75.10;;;;;;6253287;22;20501;-85
2022/07/12 10:40:45;;;;;;;0.00;0.00;;;30.30;81.20;;;;;;6278343;22;20049;-84
2022/07/12 10:43:10;;;;;;;0.00;0.00;;;30.20;77.20;;;;;;6278406;22;20034;-85
2022/07/12 10:45:40;;;;;;;0.00;0.00;;;30.10;78.40;;;;;;6278484;22;20462;-85
2022/07/12 10:48:09;;;;;;;0.00;0.00;;;30.30;78.80;;;;;;6251428;22;20014;-87
2022/07/12 10:50:55;;;;;;;0.10;0.10;;;30.60;79.70;;;;;;6253678;22;20407;-87
2022/07/12 10:53:40;;;;;;;0.00;0.00;;;30.90;78.60;;;;;;6252914;22;20065;-85
2022/07/12 10:56:22;;;;;;;0.00;0.00;;;30.90;75.60;;;;;;6253172;22;20100;-86
2022/07/12 10:58:59;;;;;;;0.00;0.00;;;30.80;77.90;;;;;;6277738;22;20011;-84
2022/07/12 11:01:30;;;;;;;0.00;0.00;;;30.90;80.60;;;;;;6253083;22;20008;-86
2022/07/12 11:04:06;;;;;;;0.00;0.00;;;30.90;79.60;;;;;;6253514;22;20043;-85
2022/07/12 11:06:38;;;;;;;0.03;0.00;;;31.10;78.00;;;;;;6252779;22;20443;-85
2022/07/12 12:19:00;;;;;;;0.00;0.00;;;31.70;76.70;;;;;;6226587;22;20058;-84
2022/07/12 12:21:26;;;;;;;0.00;0.00;;;31.70;73.10;;;;;;6224379;22;20016;-84
2022/07/12 12:24:09;;;;;;;0.10;0.10;;;31.60;73.40;;;;;;6249277;22;20011;-86
2022/07/12 12:26:34;;;;;;;0.00;0.00;;;31.70;73.30;;;;;;6224761;22;20042;-87
2022/07/12 12:29:02;;;;;;;0.00;0.00;;;31.80;69.60;;;;;;6218281;23;20016;-84
2022/07/12 12:31:27;;;;;;;0.00;0.00;;;32.00;71.80;;;;;;6218591;23;20053;-83
2022/07/12 12:44:15;;;;;;;0.00;0.00;;;32.20;70.00;;;;;;6238700;22;20068;-85
2022/07/12 12:47:30;;;;;;;0.00;0.00;;;32.20;67.10;;;;;;6267084;22;20011;-80
2022/07/12 12:49:50;;;;;;;0.00;0.00;;;32.30;73.30;;;;;;6299620;22;20015;-80
2022/07/12 12:52:17;;;;;;;0.00;0.00;;;32.40;70.00;;;;;;6273080;22;20015;-81
2022/07/12 12:54:44;;;;;;;0.00;0.00;;;32.50;69.10;;;;;;6299971;22;20027;-81
2022/07/12 12:57:11;;;;;;;0.00;0.00;;;32.50;70.10;;;;;;6274329;22;20034;-80
2022/07/12 12:59:37;;;;;;;0.00;0.00;;;32.60;68.80;;;;;;6275224;22;20037;-81
2022/07/12 13:02:04;;;;;;;0.00;0.00;;;32.50;69.20;;;;;;6276471;22;20019;-80
2022/07/12 13:04:34;;;;;;;0.00;0.00;;;32.30;66.20;;;;;;6275859;22;20002;-80
2022/07/12 13:07:00;;;;;;;0.00;0.00;;;32.00;70.30;;;;;;6301793;22;20003;-81
2022/07/12 13:09:27;;;;;;;0.00;0.00;;;31.90;69.30;;;;;;6277002;22;20437;-80
2022/07/12 13:11:52;;;;;;;0.00;0.00;;;31.70;67.70;;;;;;6278352;22;20015;-81
2022/07/12 13:14:18;;;;;;;0.08;0.08;;;31.60;69.90;;;;;;6304435;22;20007;-80
2022/07/12 13:16:44;;;;;;;0.00;0.00;;;31.30;67.90;;;;;;6304883;22;20042;-80
2022/07/12 13:19:09;;;;;;;0.00;0.00;;;31.10;71.00;;;;;;6279039;22;20046;-80
2022/07/12 13:21:35;;;;;;;0.00;0.00;;;30.90;71.40;;;;;;6280999;22;20030;-80
2022/07/12 13:24:01;;;;;;;0.00;0.00;;;30.80;71.30;;;;;;6281340;22;20018;-80
2022/07/12 13:26:27;;;;;;;0.00;0.00;;;30.70;71.30;;;;;;6304896;22;20011;-80
2022/07/12 13:28:56;;;;;;;0.00;0.00;;;30.60;71.20;;;;;;6257370;22;20004;-80
2022/07/12 13:31:22;;;;;;;0.00;0.00;;;30.50;68.80;;;;;;6284643;22;20060;-80
2022/07/12 13:33:47;;;;;;;0.00;0.00;;;30.50;72.80;;;;;;6285154;22;20011;-81
2022/07/12 13:36:13;;;;;;;0.00;0.00;;;30.50;72.90;;;;;;6260769;22;20037;-81
2022/07/12 13:38:39;;;;;;;0.00;0.00;;;30.50;74.10;;;;;;6260580;22;20014;-80
2022/07/12 13:41:05;;;;;;;0.00;0.00;;;30.50;73.40;;;;;;6285360;22;20037;-80
2022/07/12 13:43:31;;;;;;;0.00;0.00;;;30.50;72.70;;;;;;6286028;22;20041;-80
2022/07/12 13:45:56;;;;;;;0.00;0.00;;;30.40;73.20;;;;;;6260158;22;20015;-83
2022/07/12 13:48:22;;;;;;;0.00;0.00;;;30.40;74.90;;;;;;6258065;22;20071;-82
2022/07/12 13:50:48;;;;;;;0.00;0.00;;;30.40;74.50;;;;;;6261142;22;20015;-82
2022/07/12 13:53:14;;;;;;;0.00;0.00;;;30.40;75.30;;;;;;6262356;22;20022;-82
2022/07/12 13:55:44;;;;;;;0.10;0.03;;;30.40;73.70;;;;;;6261660;22;20063;-81
2022/07/12 13:58:11;;;;;;;0.00;0.00;;;30.50;72.20;;;;;;6287140;22;20335;-81
2022/07/12 14:00:36;;;;;;;0.00;0.00;;;30.50;73.20;;;;;;6288735;22;20013;-81
2022/07/12 14:03:02;;;;;;;0.00;0.00;;;30.50;74.70;;;;;;6262843;22;20008;-81
2022/07/12 14:05:28;;;;;;;0.00;0.00;;;30.40;74.20;;;;;;6288491;22;20019;-81
2022/07/12 14:07:54;;;;;;;0.00;0.00;;;30.30;74.20;;;;;;6260571;22;20019;-82
2022/07/12 14:10:20;;;;;;;0.00;0.00;;;30.10;75.40;;;;;;6289976;22;20085;-82
2022/07/12 14:12:46;;;;;;;0.00;0.00;;;29.80;73.70;;;;;;6289401;22;20018;-82
2022/07/12 14:17:51;;;;;;;0.10;0.00;;;29.40;75.80;;;;;;6286133;22;20346;-81
2022/07/12 14:20:21;;;;;;;0.00;0.00;;;29.20;75.70;;;;;;6287780;22;20038;-81
2022/07/12 14:22:48;;;;;;;0.00;0.00;;;29.00;76.80;;;;;;6261603;22;20455;-81
2022/07/12 14:25:13;;;;;;;0.00;0.00;;;28.90;76.60;;;;;;6265643;22;20012;-81
2022/07/12 14:27:40;;;;;;;0.00;0.00;;;28.70;78.40;;;;;;6264689;22;20488;-81
2022/07/12 14:30:07;;;;;;;0.00;0.00;;;28.70;79.10;;;;;;6262131;22;20015;-81
2022/07/12 14:32:34;;;;;;;0.08;0.08;;;28.60;80.50;;;;;;6264393;22;20011;-81
2022/07/12 14:35:00;;;;;;;0.00;0.00;;;28.50;80.40;;;;;;6265183;22;20066;-81
2022/07/12 14:37:25;;;;;;;0.00;0.00;;;28.50;81.80;;;;;;6290600;22;20007;-81
2022/07/12 14:39:51;;;;;;;0.10;0.00;;;28.40;79.90;;;;;;6262614;22;20035;-84
2022/07/12 14:42:17;;;;;;;0.00;0.00;;;28.50;82.20;;;;;;6263796;22;20037;-81
2022/07/12 14:44:43;;;;;;;0.10;0.00;;;28.50;82.60;;;;;;6268115;22;20011;-80
2022/07/12 14:47:10;;;;;;;0.00;0.00;;;28.50;80.10;;;;;;6267123;22;20034;-81
2022/07/12 14:49:36;;;;;;;0.00;0.00;;;28.50;81.30;;;;;;6267653;22;20015;-81
2022/07/12 14:52:03;;;;;;;0.00;0.00;;;28.40;81.00;;;;;;6267778;22;20374;-81
2022/07/12 14:54:29;;;;;;;0.00;0.00;;;28.40;81.00;;;;;;6294092;22;20385;-80
2022/07/12 14:56:54;;;;;;;0.00;0.00;;;28.30;82.20;;;;;;6294293;22;20015;-81
2022/07/12 14:59:20;;;;;;;0.00;0.00;;;28.30;84.50;;;;;;6294852;22;20028;-81
2022/07/12 15:01:45;;;;;;;0.10;0.10;;;28.30;79.50;;;;;;6294737;22;20029;-82
2022/07/12 15:04:11;;;;;;;0.00;0.00;;;28.20;80.70;;;;;;6286349;22;20135;-82
2022/07/12 15:06:37;;;;;;;0.05;0.00;;;28.20;82.70;;;;;;6254250;22;20015;-83
2022/07/12 15:09:03;;;;;;;0.00;0.00;;;28.20;85.40;;;;;;6254222;22;20011;-83
2022/07/12 15:11:28;;;;;;;0.00;0.00;;;28.10;89.00;;;;;;6254471;22;20061;-85
2022/07/12 15:13:54;;;;;;;0.00;0.00;;;28.00;86.70;;;;;;6256409;22;20041;-83
2022/07/12 15:16:20;;;;;;;0.00;0.00;;;28.00;88.20;;;;;;6261243;22;20038;-80
2022/07/12 15:18:45;;;;;;;0.00;0.00;;;27.80;85.90;;;;;;6263996;22;20418;-82
2022/07/12 15:21:11;;;;;;;0.00;0.00;;;27.70;89.20;;;;;;6292872;22;20003;-82
2022/07/12 15:23:37;;;;;;;0.00;0.00;;;27.60;88.60;;;;;;6257942;22;20084;-82
2022/07/12 15:26:02;;;;;;;0.00;0.00;;;27.60;88.80;;;;;;6259977;22;20490;-81
2022/07/12 15:28:29;;;;;;;0.00;0.00;;;27.50;88.60;;;;;;6265384;22;20016;-82
2022/07/12 15:30:55;;;;;;;0.00;0.00;;;27.50;84.70;;;;;;6270770;22;20031;-81
2022/07/12 15:33:21;;;;;;;0.00;0.00;;;27.50;90.50;;;;;;6271607;22;20095;-82
2022/07/12 15:35:47;;;;;;;0.00;0.00;;;27.50;89.10;;;;;;6268555;22;20052;-81
2022/07/12 15:38:13;;;;;;;0.00;0.00;;;27.50;89.80;;;;;;6270214;22;20064;-81
2022/07/12 15:40:38;;;;;;;0.00;0.00;;;27.50;89.50;;;;;;6266256;22;20011;-81
2022/07/12 15:43:04;;;;;;;0.00;0.00;;;27.50;89.60;;;;;;6291954;22;20035;-81